This is the latest recevied weather packets stored in our database for station/object 9M4GEK-3. If no packets are shown the sender has not sent any weather packets the latest 10 day(s).
| Time | Temp. | Humidity | Pressure | Rain* | Wind** | Luminosity | Snow |
|---|---|---|---|---|---|---|---|
| 1777479049 | 27.78° C | 72% | 1009.2 hPa | - | - | - | - |
| 1777476443 | 27.22° C | 73% | 1009.2 hPa | - | - | - | - |
| 1777475528 | 27.22° C | 71% | 1009.1 hPa | - | - | - | - |
| 1777472806 | 27.78° C | 71% | 1008.8 hPa | - | - | - | - |
| 1777472749 | 27.78° C | 71% | 1008.8 hPa | - | - | - | - |
| 1777469148 | 27.78° C | 69% | 1008.1 hPa | - | - | - | - |
| 1777465612 | 27.22° C | 69% | 1007 hPa | - | - | - | - |
| 1777465548 | 27.22° C | 69% | 1007 hPa | - | - | - | - |
| 1777461985 | 26.67° C | 70% | 1006.7 hPa | - | - | - | - |
| 1777461946 | 26.67° C | 70% | 1006.7 hPa | - | - | - | - |
| 1777458345 | 28.33° C | 67% | 1005.9 hPa | - | - | - | - |
| 1777457445 | 28.89° C | 66% | 1005.3 hPa | - | - | - | - |
| 1777456544 | 28.33° C | 66% | 1005 hPa | - | - | - | - |
| 1777455645 | 28.89° C | 66% | 1005.4 hPa | - | - | - | - |
| 1777454791 | 28.89° C | 67% | 1005.3 hPa | - | - | - | - |
| 1777454745 | 28.89° C | 67% | 1005.3 hPa | - | - | - | - |
| 1777453844 | 27.22° C | 69% | 1005.7 hPa | - | - | - | - |
| 1777452944 | 26.67° C | 71% | 1005.8 hPa | - | - | - | - |
| 1777452043 | 26.67° C | 73% | 1006 hPa | - | - | - | - |
| 1777451144 | 25.56° C | 77% | 1005.9 hPa | - | - | - | - |
| 1777450243 | 25° C | 79% | 1006.1 hPa | - | - | - | - |
| 1777449343 | 26.11° C | 78% | 1006.3 hPa | - | - | - | - |
| 1777448443 | 28.89° C | 67% | 1006.7 hPa | - | - | - | - |
| 1777447981 | 34.44° C | 44% | 1005.6 hPa | - | - | - | - |
| 1777447543 | 34.44° C | 44% | 1005.6 hPa | - | - | - | - |
* Rain since midnight (hover to see other rain measurements)
** Current wind speed in m/s (hover to see current wind gust speed)